Time;durP1;ratioP1;P1;durP2;ratioP2;P2;SDS_P1;SDS_P2;PMS_P1;PMS_P2;Temp;Humidity;BMP_temperature;BMP_pressure;BME280_temperature;BME280_humidity;BME280_pressure;Samples;Min_cycle;Max_cycle;Signal;HPM_P1;HPM_P2
2024/03/24 00:01:48;;;;;;;2.20;0.70;;;;;;;3.66;83.81;94847.72;5053651;28;20197;-78
2024/03/24 00:04:13;;;;;;;1.27;1.10;;;;;;;3.73;84.02;94845.47;5082043;28;20264;-78
2024/03/24 00:06:39;;;;;;;1.80;0.97;;;;;;;3.81;83.31;94850.81;5064674;28;20193;-78
2024/03/24 00:09:04;;;;;;;1.53;0.93;;;;;;;3.57;84.72;94846.69;5068611;28;20640;-78
2024/03/24 00:11:30;;;;;;;2.63;1.10;;;;;;;3.74;83.90;94847.94;5082174;28;20184;-78
2024/03/24 00:13:55;;;;;;;1.90;0.80;;;;;;;3.73;84.33;94843.72;5083832;28;20203;-78
2024/03/24 00:16:20;;;;;;;4.37;1.10;;;;;;;3.76;83.72;94840.09;5085369;28;20186;-78
2024/03/24 00:18:46;;;;;;;1.77;1.00;;;;;;;3.79;83.73;94842.41;5054217;28;20255;-78
2024/03/24 00:21:11;;;;;;;1.63;0.90;;;;;;;3.85;83.97;94844.47;5081787;28;20684;-77
2024/03/24 00:23:37;;;;;;;1.33;0.80;;;;;;;3.82;83.09;94843.00;5081533;28;20185;-78
2024/03/24 00:26:02;;;;;;;2.60;1.00;;;;;;;3.42;85.12;94835.06;5078165;28;20276;-77
2024/03/24 00:28:28;;;;;;;1.27;1.07;;;;;;;3.59;84.44;94831.16;5085888;28;20287;-77
2024/03/24 00:30:53;;;;;;;1.87;0.90;;;;;;;3.53;84.82;94827.31;5087148;28;20209;-77
2024/03/24 00:33:18;;;;;;;1.87;0.80;;;;;;;3.69;83.74;94821.78;5067429;28;20643;-77
2024/03/24 00:35:43;;;;;;;1.13;0.80;;;;;;;3.75;84.50;94828.19;5068426;28;20649;-78
2024/03/24 00:38:09;;;;;;;1.33;0.70;;;;;;;3.69;83.95;94820.03;5072342;28;20253;-78
2024/03/24 00:40:34;;;;;;;0.67;0.60;;;;;;;3.81;83.75;94820.00;5067333;28;20179;-77
2024/03/24 00:43:00;;;;;;;0.97;0.70;;;;;;;3.87;83.56;94820.28;5061981;28;20200;-77
2024/03/24 00:45:25;;;;;;;1.50;1.20;;;;;;;3.66;84.28;94817.72;5067985;28;20181;-77
2024/03/24 00:47:51;;;;;;;0.53;0.50;;;;;;;3.79;83.85;94819.28;5071482;28;20706;-78
2024/03/24 00:50:17;;;;;;;1.13;0.70;;;;;;;3.93;83.34;94816.44;5060146;28;20685;-77
2024/03/24 00:52:43;;;;;;;0.87;0.60;;;;;;;3.94;83.63;94815.47;5062919;28;20186;-78
2024/03/24 00:55:08;;;;;;;0.83;0.63;;;;;;;3.95;83.13;94814.53;5064058;28;20213;-78
2024/03/24 00:57:34;;;;;;;2.00;0.70;;;;;;;4.00;83.71;94821.88;5067267;28;20203;-78
2024/03/24 00:59:59;;;;;;;0.80;0.70;;;;;;;3.93;83.57;94813.84;5067431;28;20541;-77
2024/03/24 01:02:26;;;;;;;1.80;0.80;;;;;;;3.93;83.06;94808.72;5071872;28;20668;-78
2024/03/24 01:04:51;;;;;;;2.03;0.80;;;;;;;4.07;83.06;94816.13;5072384;28;20188;-78
2024/03/24 01:07:16;;;;;;;0.70;0.70;;;;;;;4.04;83.15;94807.84;5045859;28;20771;-78
2024/03/24 01:09:42;;;;;;;1.07;1.00;;;;;;;3.96;82.44;94814.41;5091396;28;20612;-78
2024/03/24 01:12:07;;;;;;;2.10;0.70;;;;;;;4.17;81.54;94806.72;5065347;28;20640;-78
2024/03/24 01:14:32;;;;;;;2.50;0.70;;;;;;;3.90;82.45;94808.97;5071306;28;20184;-78
2024/03/24 01:16:58;;;;;;;1.03;0.70;;;;;;;3.93;81.54;94809.53;5045359;28;20205;-79
2024/03/24 01:19:23;;;;;;;2.07;0.60;;;;;;;4.02;81.30;94802.81;5065950;28;20216;-78
2024/03/24 01:21:48;;;;;;;1.57;0.70;;;;;;;3.99;81.15;94800.53;5065079;28;20686;-78
2024/03/24 01:24:14;;;;;;;2.67;1.27;;;;;;;3.82;81.70;94811.34;5070023;28;20212;-78
2024/03/24 01:26:39;;;;;;;3.40;0.80;;;;;;;3.70;80.47;94808.81;5064732;28;20185;-79
2024/03/24 01:29:04;;;;;;;2.77;0.87;;;;;;;3.75;80.78;94802.50;5057934;28;20202;-78
2024/03/24 01:31:30;;;;;;;2.07;0.90;;;;;;;3.59;80.68;94806.31;5053030;28;20245;-77
2024/03/24 01:33:55;;;;;;;1.80;0.80;;;;;;;3.93;79.76;94804.41;5068586;28;20193;-78
2024/03/24 01:36:20;;;;;;;1.00;0.70;;;;;;;3.84;80.09;94800.00;5056451;28;20217;-77
2024/03/24 01:38:46;;;;;;;0.60;0.53;;;;;;;3.76;79.92;94804.13;5079004;28;20272;-77
2024/03/24 01:41:11;;;;;;;1.37;1.27;;;;;;;3.87;79.07;94804.88;5073478;28;20194;-77
2024/03/24 01:43:36;;;;;;;3.03;0.70;;;;;;;3.80;79.66;94797.81;5074942;28;20624;-77
2024/03/24 01:46:03;;;;;;;2.10;0.80;;;;;;;3.77;78.18;94791.16;5093596;28;20199;-78
2024/03/24 01:48:29;;;;;;;1.73;0.80;;;;;;;3.92;77.62;94789.13;5058543;28;20212;-78
2024/03/24 01:50:54;;;;;;;2.53;0.90;;;;;;;3.82;78.11;94793.38;5060813;28;20184;-77
2024/03/24 01:53:20;;;;;;;1.10;0.70;;;;;;;3.78;78.54;94786.84;5079609;28;20177;-77
2024/03/24 01:55:46;;;;;;;4.87;0.90;;;;;;;3.91;77.76;94784.91;5061472;28;20218;-77
2024/03/24 01:58:11;;;;;;;4.20;1.17;;;;;;;3.80;77.75;94780.66;5066929;28;20267;-77
2024/03/24 02:00:37;;;;;;;1.37;1.10;;;;;;;3.85;77.47;94783.66;5076316;28;20231;-77
2024/03/24 02:03:02;;;;;;;3.87;1.00;;;;;;;3.88;77.30;94780.00;5057210;28;20195;-77
2024/03/24 02:05:28;;;;;;;2.57;0.90;;;;;;;3.80;77.47;94779.81;5049979;28;20181;-77
2024/03/24 02:07:54;;;;;;;1.43;0.80;;;;;;;3.73;77.66;94778.72;5068949;28;20204;-77
2024/03/24 02:10:19;;;;;;;1.80;0.80;;;;;;;4.02;76.80;94769.44;5084682;28;20245;-77
2024/03/24 02:12:45;;;;;;;0.93;0.77;;;;;;;3.94;76.79;94774.38;5092299;28;20177;-77
2024/03/24 02:15:14;;;;;;;5.03;1.00;;;;;;;3.79;77.80;94758.47;5075322;28;20310;-78
2024/03/24 02:17:40;;;;;;;1.40;0.90;;;;;;;3.91;77.11;94770.31;5071016;28;20204;-77
2024/03/24 02:20:06;;;;;;;3.83;1.00;;;;;;;4.03;76.80;94763.34;5086236;28;20263;-77
2024/03/24 02:22:36;;;;;;;2.03;0.83;;;;;;;4.00;77.45;94753.34;5054430;28;20196;-78
2024/03/24 02:25:01;;;;;;;2.50;1.00;;;;;;;3.94;78.40;94762.34;5070874;28;20186;-78
2024/03/24 02:27:26;;;;;;;1.83;0.80;;;;;;;4.07;77.74;94761.34;5067510;28;20710;-78
2024/03/24 02:29:52;;;;;;;1.17;0.80;;;;;;;3.80;79.42;94766.97;5095193;28;20650;-77
2024/03/24 02:32:17;;;;;;;1.37;1.10;;;;;;;3.70;79.60;94762.59;5068963;28;20197;-78
2024/03/24 02:34:42;;;;;;;1.60;0.90;;;;;;;3.74;79.89;94767.50;5058985;28;20218;-78
2024/03/24 02:37:07;;;;;;;1.77;1.00;;;;;;;3.53;80.67;94755.44;5093207;28;20215;-77
2024/03/24 02:39:33;;;;;;;3.07;0.80;;;;;;;3.38;81.93;94751.56;5057982;28;20184;-78
2024/03/24 02:41:58;;;;;;;4.00;1.17;;;;;;;3.54;81.42;94744.28;5062958;28;20180;-78
2024/03/24 02:44:23;;;;;;;1.20;0.87;;;;;;;3.63;81.38;94746.09;5073830;28;20219;-78
2024/03/24 02:46:48;;;;;;;2.17;0.90;;;;;;;3.61;82.11;94742.81;5060928;28;20223;-78
2024/03/24 02:49:14;;;;;;;1.20;0.90;;;;;;;3.76;81.32;94745.88;5093198;28;20247;-78
2024/03/24 02:51:39;;;;;;;1.00;0.80;;;;;;;3.65;81.40;94741.63;5068292;28;20184;-78
2024/03/24 02:54:05;;;;;;;0.70;0.70;;;;;;;3.43;82.11;94736.59;5073023;28;20224;-78
2024/03/24 02:56:30;;;;;;;1.80;0.93;;;;;;;3.64;81.02;94736.63;5056919;28;20176;-78
2024/03/24 02:58:55;;;;;;;1.20;0.80;;;;;;;3.64;81.06;94726.34;5093512;28;20179;-78
2024/03/24 03:01:21;;;;;;;1.00;0.80;;;;;;;3.52;81.51;94723.03;5070255;28;20177;-78
2024/03/24 03:03:46;;;;;;;2.00;0.93;;;;;;;3.44;81.93;94725.38;5064902;28;20183;-78
2024/03/24 03:06:14;;;;;;;1.83;1.10;;;;;;;3.59;81.53;94724.16;5063066;28;20191;-78
2024/03/24 03:08:40;;;;;;;1.27;0.90;;;;;;;3.60;82.08;94720.66;5073597;28;20233;-78
2024/03/24 03:11:05;;;;;;;4.53;1.90;;;;;;;3.57;82.09;94720.91;5057384;28;20564;-77
2024/03/24 03:13:31;;;;;;;2.43;0.80;;;;;;;3.69;81.82;94716.50;5077732;28;20216;-78
2024/03/24 03:15:56;;;;;;;1.43;0.70;;;;;;;3.56;81.83;94721.84;5090579;28;20210;-78
2024/03/24 03:18:21;;;;;;;3.30;0.80;;;;;;;3.55;82.49;94717.66;5069902;28;20216;-78
2024/03/24 03:20:47;;;;;;;0.93;0.70;;;;;;;3.75;82.01;94723.72;5080843;28;20191;-78
2024/03/24 03:23:12;;;;;;;2.43;1.33;;;;;;;3.67;82.12;94711.50;5075047;28;20170;-78
2024/03/24 03:25:38;;;;;;;1.17;0.90;;;;;;;3.49;82.39;94714.78;5071436;28;20182;-78
2024/03/24 03:28:03;;;;;;;2.83;0.90;;;;;;;3.63;82.27;94715.28;5053216;28;20231;-78
2024/03/24 03:30:29;;;;;;;2.17;0.80;;;;;;;3.63;83.27;94709.34;5059205;28;20278;-78
2024/03/24 03:32:54;;;;;;;1.50;0.70;;;;;;;3.59;83.13;94708.75;5069218;28;20248;-78
2024/03/24 03:35:19;;;;;;;1.57;0.70;;;;;;;3.65;82.98;94704.88;5052838;28;20183;-77
2024/03/24 03:37:44;;;;;;;0.77;0.70;;;;;;;3.65;82.52;94704.88;5057391;28;20381;-77
2024/03/24 03:40:10;;;;;;;2.10;0.70;;;;;;;3.63;83.04;94704.19;5089289;28;20182;-77
2024/03/24 03:42:36;;;;;;;0.90;0.90;;;;;;;3.76;82.33;94704.00;5078875;28;20196;-77
2024/03/24 03:45:01;;;;;;;1.13;0.70;;;;;;;3.67;82.53;94703.81;5078990;28;20185;-77
2024/03/24 03:47:27;;;;;;;2.60;0.93;;;;;;;3.56;82.22;94697.94;5087530;28;20202;-77
2024/03/24 03:49:53;;;;;;;2.60;0.90;;;;;;;3.70;81.95;94703.53;5090252;28;20184;-77
2024/03/24 03:52:25;;;;;;;1.43;0.73;;;;;;;3.78;81.41;94691.81;5056074;28;20716;-77
2024/03/24 03:54:56;;;;;;;0.60;0.60;;;;;;;3.69;81.33;94704.47;5085799;28;20824;-78
2024/03/24 03:57:21;;;;;;;1.50;0.90;;;;;;;3.76;81.82;94698.84;5047938;28;20580;-77
2024/03/24 03:59:47;;;;;;;1.70;1.10;;;;;;;3.76;81.13;94699.66;5068955;28;20270;-77
2024/03/24 04:02:12;;;;;;;0.77;0.70;;;;;;;3.43;82.63;94708.38;5069572;28;20648;-78
2024/03/24 04:04:38;;;;;;;1.23;0.87;;;;;;;3.84;81.43;94712.69;5089227;28;20890;-78
2024/03/24 04:07:04;;;;;;;1.47;0.77;;;;;;;3.75;82.17;94705.75;5075046;28;20234;-78
2024/03/24 04:09:29;;;;;;;1.00;0.90;;;;;;;3.86;81.75;94703.09;5050657;28;20227;-78
2024/03/24 04:11:54;;;;;;;0.73;0.70;;;;;;;3.88;81.92;94713.22;5073369;28;20212;-78
2024/03/24 04:14:19;;;;;;;1.23;0.90;;;;;;;3.58;82.46;94707.13;5072980;28;20185;-78
2024/03/24 04:16:45;;;;;;;1.07;0.93;;;;;;;3.67;81.94;94710.69;5069084;28;20181;-78
2024/03/24 04:19:10;;;;;;;1.20;0.90;;;;;;;3.81;81.67;94719.84;5085343;28;20175;-78
2024/03/24 04:21:36;;;;;;;2.30;0.70;;;;;;;3.82;81.59;94724.03;5058008;28;20188;-78
2024/03/24 04:24:02;;;;;;;0.80;0.80;;;;;;;3.68;81.78;94720.84;5071727;28;20181;-78
2024/03/24 04:26:27;;;;;;;2.60;1.20;;;;;;;3.66;81.66;94721.91;5085709;28;20177;-78
2024/03/24 04:28:53;;;;;;;1.10;1.00;;;;;;;3.69;82.08;94713.94;5073780;28;20217;-78
2024/03/24 04:31:18;;;;;;;4.30;1.67;;;;;;;3.53;82.04;94713.56;5087494;28;20236;-78
2024/03/24 04:33:43;;;;;;;2.53;1.10;;;;;;;3.72;81.28;94707.75;5087438;28;20245;-78
2024/03/24 04:36:09;;;;;;;2.50;1.20;;;;;;;3.42;81.46;94712.69;5070750;28;20193;-78
2024/03/24 04:38:34;;;;;;;1.60;1.37;;;;;;;3.22;81.28;94702.41;5058452;28;20250;-78
2024/03/24 04:41:00;;;;;;;1.80;0.90;;;;;;;3.21;81.26;94703.34;5069460;28;20205;-78
2024/03/24 04:43:26;;;;;;;1.27;1.17;;;;;;;3.28;79.96;94705.31;5075172;28;20197;-78
2024/03/24 04:45:51;;;;;;;1.40;1.30;;;;;;;3.34;80.30;94704.78;5066587;28;20177;-78
2024/03/24 04:48:17;;;;;;;1.57;1.17;;;;;;;3.32;79.79;94704.13;5054075;28;20193;-78
2024/03/24 04:50:43;;;;;;;1.27;1.13;;;;;;;3.07;80.35;94717.28;5086765;28;20223;-78
2024/03/24 04:53:09;;;;;;;2.40;1.30;;;;;;;3.11;81.35;94708.41;5060795;28;20243;-78
2024/03/24 04:55:34;;;;;;;2.07;1.37;;;;;;;3.26;80.57;94709.72;5074480;28;20192;-78
2024/03/24 04:58:00;;;;;;;1.67;1.57;;;;;;;3.40;80.35;94721.47;5070479;28;20201;-77
2024/03/24 05:00:26;;;;;;;3.87;1.70;;;;;;;3.50;80.67;94724.09;5070975;28;20214;-78
2024/03/24 05:02:51;;;;;;;2.30;1.17;;;;;;;3.61;80.16;94729.97;5090643;28;20189;-78
2024/03/24 05:05:17;;;;;;;2.77;1.20;;;;;;;3.47;80.48;94725.16;5057481;28;20202;-78
2024/03/24 05:07:42;;;;;;;2.03;1.30;;;;;;;3.56;80.76;94728.75;5082280;28;20210;-78
2024/03/24 05:10:07;;;;;;;3.73;1.40;;;;;;;3.65;80.18;94730.56;5052058;28;20182;-78
2024/03/24 05:12:33;;;;;;;2.70;1.43;;;;;;;3.60;80.72;94730.91;5083696;28;20250;-78
2024/03/24 05:14:59;;;;;;;1.90;1.70;;;;;;;3.64;80.37;94732.31;5074444;28;20185;-78
2024/03/24 05:17:25;;;;;;;2.30;1.60;;;;;;;3.65;80.11;94728.81;5050224;28;20201;-78
2024/03/24 05:19:50;;;;;;;2.53;1.57;;;;;;;3.78;79.54;94727.78;5072188;28;20188;-78
2024/03/24 05:22:16;;;;;;;2.53;1.50;;;;;;;3.69;79.81;94734.47;5082150;28;20684;-78
2024/03/24 05:24:41;;;;;;;2.13;1.37;;;;;;;3.64;79.83;94734.06;5083844;28;20598;-78
2024/03/24 05:27:06;;;;;;;2.87;1.40;;;;;;;3.78;79.09;94740.63;5047797;28;20742;-78
2024/03/24 05:29:32;;;;;;;2.73;1.53;;;;;;;3.72;79.57;94743.72;5075008;28;20210;-78
2024/03/24 05:31:59;;;;;;;3.60;1.50;;;;;;;3.68;78.99;94740.56;5070716;28;20191;-78
2024/03/24 05:34:25;;;;;;;2.60;1.43;;;;;;;3.75;79.64;94735.75;5080457;28;20181;-78
2024/03/24 05:36:51;;;;;;;2.43;1.67;;;;;;;3.73;79.56;94750.47;5053791;28;20195;-78
2024/03/24 05:39:16;;;;;;;2.67;1.60;;;;;;;3.48;79.76;94744.75;5087556;28;20184;-78
2024/03/24 05:41:42;;;;;;;1.60;1.50;;;;;;;3.51;79.37;94747.06;5052286;28;20254;-78
2024/03/24 05:44:07;;;;;;;2.23;1.67;;;;;;;3.68;78.87;94750.84;5060899;28;20243;-78
2024/03/24 05:46:32;;;;;;;3.17;1.33;;;;;;;3.68;78.95;94750.84;5093307;28;20673;-78
2024/03/24 05:48:58;;;;;;;4.97;1.40;;;;;;;3.67;78.96;94754.34;5055132;28;20210;-78
2024/03/24 05:51:23;;;;;;;1.70;1.60;;;;;;;3.58;79.10;94747.38;5084689;28;20236;-78
2024/03/24 05:53:48;;;;;;;3.30;1.83;;;;;;;3.73;78.49;94753.84;5048516;28;20648;-78
2024/03/24 05:56:14;;;;;;;2.73;1.83;;;;;;;3.80;78.10;94754.13;5068852;28;20724;-78
2024/03/24 05:58:40;;;;;;;4.17;1.90;;;;;;;3.86;77.95;94756.22;5052673;28;20213;-77
2024/03/24 06:01:05;;;;;;;5.50;1.90;;;;;;;3.47;79.46;94755.16;5068213;28;20181;-78
2024/03/24 06:03:30;;;;;;;2.43;1.80;;;;;;;3.85;78.57;94762.28;5066664;28;20563;-78
2024/03/24 06:05:56;;;;;;;4.07;1.93;;;;;;;3.75;79.12;94756.28;5079817;28;20642;-78
2024/03/24 06:08:23;;;;;;;6.53;1.83;;;;;;;3.52;79.67;94753.00;5046041;28;20202;-77
2024/03/24 06:10:48;;;;;;;2.70;1.57;;;;;;;3.65;79.17;94751.91;5056470;28;20281;-78
2024/03/24 06:13:13;;;;;;;3.50;1.53;;;;;;;3.74;79.25;94763.19;5064741;28;20228;-78
2024/03/24 06:15:39;;;;;;;3.57;1.70;;;;;;;3.82;78.77;94763.38;5055174;28;20195;-78
2024/03/24 06:18:05;;;;;;;2.70;1.60;;;;;;;3.72;77.71;94759.13;5043671;28;20637;-79
2024/03/24 06:20:39;;;;;;;2.13;1.20;;;;;;;3.79;77.80;94773.06;5080730;28;20799;-77
2024/03/24 06:23:05;;;;;;;3.30;1.50;;;;;;;3.76;78.15;94778.47;5068753;28;20491;-78
2024/03/24 06:25:31;;;;;;;5.27;1.67;;;;;;;3.84;76.82;94776.91;5069628;28;20903;-79
2024/03/24 06:27:57;;;;;;;3.10;1.40;;;;;;;3.59;76.43;94774.69;5062290;28;20608;-78
2024/03/24 06:30:23;;;;;;;2.73;1.37;;;;;;;3.62;76.79;94780.41;5073463;28;20227;-78
2024/03/24 06:32:48;;;;;;;3.43;1.60;;;;;;;3.58;75.57;94789.28;5045670;28;20188;-78
2024/03/24 06:35:14;;;;;;;8.60;2.30;;;;;;;3.85;75.63;94785.41;5046671;28;20177;-78
2024/03/24 06:37:40;;;;;;;2.63;1.50;;;;;;;4.13;75.20;94789.91;5080511;28;20207;-78
2024/03/24 06:40:09;;;;;;;3.73;1.43;;;;;;;4.32;74.57;94791.75;5063915;28;20189;-78
2024/03/24 06:42:48;;;;;;;2.87;1.47;;;;;;;4.35;74.87;94783.81;5061270;28;20857;-78
2024/03/24 06:45:14;;;;;;;2.40;1.70;;;;;;;4.43;74.14;94789.13;5053176;28;20189;-78
2024/03/24 06:47:39;;;;;;;2.13;1.40;;;;;;;4.22;74.48;94796.03;5081741;28;20211;-78
2024/03/24 06:50:08;;;;;;;4.27;1.97;;;;;;;3.81;73.71;94790.00;5065859;28;20250;-78
2024/03/24 06:52:34;;;;;;;2.03;1.77;;;;;;;4.65;72.31;94788.13;5078707;28;20188;-78
2024/03/24 06:54:59;;;;;;;3.97;1.90;;;;;;;4.58;72.67;94792.13;5072897;28;20775;-78
2024/03/24 06:57:26;;;;;;;2.70;1.77;;;;;;;4.42;72.71;94802.13;5067026;28;20227;-78
2024/03/24 06:59:51;;;;;;;2.73;1.70;;;;;;;4.91;71.62;94787.66;5069108;28;20176;-78
2024/03/24 07:02:16;;;;;;;4.53;1.73;;;;;;;4.89;71.40;94792.13;5045652;28;20181;-78
2024/03/24 07:04:42;;;;;;;3.97;1.87;;;;;;;4.74;71.10;94794.25;5051311;28;20196;-78
2024/03/24 07:07:07;;;;;;;2.70;1.60;;;;;;;5.04;69.79;94783.91;5060750;28;20254;-77
2024/03/24 07:09:32;;;;;;;2.83;1.60;;;;;;;5.34;69.45;94783.00;5082416;28;20211;-78
2024/03/24 07:11:58;;;;;;;5.60;1.50;;;;;;;5.46;68.94;94777.69;5070098;28;20697;-78
2024/03/24 07:14:23;;;;;;;2.07;1.23;;;;;;;5.20;68.81;94762.78;5054474;28;20272;-78
2024/03/24 07:16:48;;;;;;;2.87;1.80;;;;;;;4.66;69.42;94750.34;5065963;28;20176;-78
2024/03/24 07:19:15;;;;;;;3.97;1.60;;;;;;;5.06;69.23;94738.25;5069333;28;20276;-78
2024/03/24 07:21:40;;;;;;;2.43;1.73;;;;;;;4.63;69.81;94733.44;5054380;28;20192;-78
2024/03/24 07:24:07;;;;;;;7.13;2.53;;;;;;;4.40;70.78;94745.66;5067203;28;20187;-77
2024/03/24 07:26:33;;;;;;;3.13;1.50;;;;;;;4.94;70.15;94743.63;5068078;28;20226;-78
2024/03/24 07:28:58;;;;;;;3.77;1.90;;;;;;;5.25;69.23;94742.59;5077140;28;20266;-78
2024/03/24 07:31:24;;;;;;;2.43;1.53;;;;;;;5.24;68.53;94743.56;5070520;28;20201;-78
2024/03/24 07:33:49;;;;;;;1.33;1.20;;;;;;;5.90;66.13;94753.97;5085620;28;20180;-77
2024/03/24 07:36:14;;;;;;;3.40;1.30;;;;;;;6.04;66.37;94757.09;5070246;28;20193;-78
2024/03/24 07:38:39;;;;;;;4.50;1.70;;;;;;;6.14;65.80;94750.94;5090763;28;20203;-77
2024/03/24 07:41:05;;;;;;;2.10;1.80;;;;;;;5.84;66.53;94751.94;5076385;28;20185;-78
2024/03/24 07:43:30;;;;;;;3.23;1.40;;;;;;;5.72;66.55;94753.03;5047840;28;20211;-78
2024/03/24 07:45:56;;;;;;;2.73;1.30;;;;;;;5.02;66.82;94746.38;5077085;28;20192;-78
2024/03/24 07:48:21;;;;;;;4.77;1.70;;;;;;;5.15;67.07;94752.09;5092501;28;20329;-78
2024/03/24 07:50:46;;;;;;;1.63;1.40;;;;;;;5.34;66.32;94761.59;5060117;28;20183;-78
2024/03/24 07:53:12;;;;;;;3.10;1.40;;;;;;;4.90;66.65;94765.44;5047762;28;20177;-78
2024/03/24 07:55:37;;;;;;;2.80;1.20;;;;;;;5.45;65.74;94769.16;5060651;28;20540;-78
2024/03/24 07:58:02;;;;;;;1.97;1.40;;;;;;;5.64;66.06;94774.31;5063739;28;20235;-78
2024/03/24 08:00:29;;;;;;;4.27;2.10;;;;;;;5.54;65.32;94764.97;5089020;28;20259;-78
2024/03/24 08:02:55;;;;;;;3.40;1.20;;;;;;;5.89;64.66;94765.22;5053639;28;20241;-81
2024/03/24 08:05:20;;;;;;;3.73;1.27;;;;;;;5.30;64.97;94768.78;5057845;28;20696;-81
2024/03/24 08:07:45;;;;;;;3.90;1.80;;;;;;;5.55;63.28;94761.44;5071756;28;20200;-81
2024/03/24 08:10:13;;;;;;;2.40;1.47;;;;;;;5.54;64.42;94770.13;5054550;28;20969;-81
2024/03/24 08:12:40;;;;;;;3.40;1.20;;;;;;;5.44;63.34;94766.72;5056357;28;20210;-81
2024/03/24 08:15:07;;;;;;;3.63;1.20;;;;;;;5.63;63.38;94774.44;5052079;28;20212;-81
2024/03/24 08:17:32;;;;;;;2.57;1.30;;;;;;;5.61;63.05;94777.16;5080169;28;20232;-81
2024/03/24 08:19:57;;;;;;;4.93;3.27;;;;;;;5.79;62.08;94777.28;5068982;28;20276;-81
2024/03/24 08:22:22;;;;;;;5.07;3.33;;;;;;;6.16;62.32;94779.97;5068383;28;20645;-81
2024/03/24 08:24:48;;;;;;;7.50;3.07;;;;;;;5.72;61.48;94760.75;5052731;28;20246;-81
2024/03/24 08:27:13;;;;;;;3.93;2.63;;;;;;;6.60;60.64;94769.13;5063933;28;20246;-81
2024/03/24 08:29:38;;;;;;;6.80;3.23;;;;;;;6.53;60.15;94780.00;5074186;28;20251;-82
2024/03/24 08:32:04;;;;;;;5.97;2.53;;;;;;;6.40;60.34;94771.78;5061286;28;20181;-81
2024/03/24 08:34:29;;;;;;;3.93;2.60;;;;;;;6.40;59.83;94773.53;5067317;28;20200;-80
2024/03/24 08:36:55;;;;;;;2.97;1.20;;;;;;;6.23;61.20;94782.81;5085116;28;20639;-81
2024/03/24 08:39:20;;;;;;;3.50;1.90;;;;;;;6.06;61.73;94763.72;5066434;28;20185;-81
2024/03/24 08:41:45;;;;;;;3.40;1.40;;;;;;;5.48;62.50;94768.91;5050000;28;20177;-81
2024/03/24 08:44:12;;;;;;;3.60;1.67;;;;;;;5.67;61.88;94780.97;5045884;28;20250;-81
2024/03/24 08:46:37;;;;;;;4.83;1.90;;;;;;;6.00;61.61;94771.19;5057969;28;20187;-80
2024/03/24 08:49:03;;;;;;;3.43;1.80;;;;;;;5.94;62.02;94775.97;5077273;28;20260;-78
2024/03/24 08:51:28;;;;;;;2.50;1.80;;;;;;;6.01;62.11;94776.22;5053781;28;20184;-79
2024/03/24 08:53:54;;;;;;;2.53;1.53;;;;;;;5.89;61.38;94760.06;5072923;28;20217;-79
2024/03/24 08:56:20;;;;;;;4.67;1.70;;;;;;;6.23;61.08;94764.75;5079123;28;20579;-78
2024/03/24 08:58:45;;;;;;;3.57;1.90;;;;;;;6.42;61.17;94769.03;5070768;28;20250;-78
2024/03/24 09:01:10;;;;;;;4.30;1.67;;;;;;;6.46;60.80;94770.41;5075276;28;20189;-79
2024/03/24 09:03:36;;;;;;;2.67;1.83;;;;;;;7.14;59.63;94778.59;5074860;28;20192;-78
2024/03/24 09:06:01;;;;;;;5.60;1.73;;;;;;;7.14;59.01;94777.81;5074869;28;20267;-78
2024/03/24 09:08:26;;;;;;;3.40;1.77;;;;;;;6.72;60.34;94788.63;5082167;28;20212;-77
2024/03/24 09:10:52;;;;;;;2.97;1.43;;;;;;;6.69;60.76;94781.16;5053896;28;20185;-77
2024/03/24 09:13:18;;;;;;;3.03;1.77;;;;;;;7.37;59.60;94773.84;5062208;28;20216;-77
2024/03/24 09:15:44;;;;;;;3.90;1.70;;;;;;;6.61;59.98;94787.03;5065585;28;20212;-77
2024/03/24 09:18:09;;;;;;;5.10;2.20;;;;;;;6.40;60.47;94792.41;5074500;28;20291;-77
2024/03/24 09:20:35;;;;;;;5.80;1.90;;;;;;;5.93;62.83;94788.97;5067887;28;20737;-77
2024/03/24 09:23:00;;;;;;;4.53;1.60;;;;;;;6.27;62.71;94786.72;5065368;28;20609;-77
2024/03/24 09:25:26;;;;;;;4.23;2.00;;;;;;;6.22;62.95;94794.88;5080940;28;20288;-77
2024/03/24 09:27:51;;;;;;;4.60;1.60;;;;;;;6.02;62.67;94795.06;5057369;28;20277;-77
2024/03/24 09:30:17;;;;;;;4.57;2.07;;;;;;;5.76;63.01;94782.72;5079807;28;20228;-77
2024/03/24 09:32:42;;;;;;;5.47;2.70;;;;;;;6.05;63.31;94792.22;5077445;28;20185;-77
2024/03/24 09:35:08;;;;;;;4.63;1.90;;;;;;;6.17;63.40;94785.94;5044902;28;20176;-77
2024/03/24 09:37:33;;;;;;;6.30;1.53;;;;;;;5.79;64.02;94779.06;5077762;28;20212;-77
2024/03/24 09:39:59;;;;;;;3.20;1.80;;;;;;;6.43;62.96;94776.63;5059689;28;20962;-77
2024/03/24 09:42:27;;;;;;;6.23;2.53;;;;;;;6.44;63.32;94764.56;5062163;28;20203;-77
2024/03/24 09:44:53;;;;;;;3.97;1.53;;;;;;;6.27;64.17;94755.78;5059872;28;20265;-77
2024/03/24 09:47:19;;;;;;;5.33;1.73;;;;;;;6.69;62.34;94763.09;5058046;28;20292;-77
2024/03/24 09:49:45;;;;;;;3.37;1.70;;;;;;;6.47;63.06;94759.13;5077026;28;20216;-77
2024/03/24 09:52:12;;;;;;;3.73;2.00;;;;;;;6.25;62.99;94765.44;5062288;28;20526;-77
2024/03/24 09:54:37;;;;;;;5.57;1.97;;;;;;;6.75;62.07;94784.00;5042795;28;20177;-77
2024/03/24 09:57:03;;;;;;;5.07;2.00;;;;;;;7.05;61.09;94764.81;5062881;28;20677;-77
2024/03/24 09:59:30;;;;;;;3.10;2.13;;;;;;;6.70;62.62;94772.47;5063613;28;20181;-77
2024/03/24 10:01:56;;;;;;;4.10;1.90;;;;;;;6.88;60.80;94775.91;5060900;28;20238;-77
2024/03/24 10:04:21;;;;;;;6.50;2.60;;;;;;;7.36;60.20;94767.06;5081405;28;20185;-76
2024/03/24 10:06:46;;;;;;;7.93;1.90;;;;;;;7.91;58.16;94775.44;5061466;28;20185;-76
2024/03/24 10:09:12;;;;;;;6.90;2.07;;;;;;;7.55;59.00;94782.41;5044616;28;20795;-77
2024/03/24 10:11:37;;;;;;;4.07;2.03;;;;;;;7.48;59.62;94772.81;5063211;28;20180;-76
2024/03/24 10:14:05;;;;;;;6.60;2.37;;;;;;;7.80;59.39;94777.47;5068615;28;20196;-77
2024/03/24 10:16:31;;;;;;;2.80;1.93;;;;;;;7.42;59.02;94766.50;5047475;28;20196;-76
2024/03/24 10:18:56;;;;;;;5.17;1.93;;;;;;;7.67;58.60;94778.63;5063753;28;20177;-76
2024/03/24 10:21:22;;;;;;;5.13;1.90;;;;;;;7.89;58.62;94777.38;5065610;28;20196;-77
2024/03/24 10:23:48;;;;;;;3.83;2.00;;;;;;;8.23;58.40;94785.22;5045214;28;20211;-77
2024/03/24 10:26:20;;;;;;;3.67;2.00;;;;;;;8.11;57.39;94789.00;5059919;28;20196;-77
2024/03/24 10:28:47;;;;;;;3.83;1.80;;;;;;;7.39;58.72;94774.50;5076852;28;20211;-77
2024/03/24 10:31:13;;;;;;;7.53;2.37;;;;;;;7.87;58.50;94773.31;5060694;28;20173;-77
2024/03/24 10:33:38;;;;;;;4.67;2.10;;;;;;;7.97;57.33;94770.66;5079162;28;20254;-77
2024/03/24 10:36:05;;;;;;;4.80;1.97;;;;;;;8.17;56.32;94759.97;5055157;28;20271;-77
2024/03/24 10:38:31;;;;;;;5.93;2.13;;;;;;;8.83;56.35;94752.56;5083748;28;20200;-77
2024/03/24 10:41:00;;;;;;;3.37;1.57;;;;;;;8.13;56.47;94748.31;5063005;28;20192;-77
2024/03/24 10:43:26;;;;;;;5.10;1.93;;;;;;;7.83;57.28;94751.31;5061542;28;20192;-77
2024/03/24 10:45:55;;;;;;;6.93;2.00;;;;;;;8.63;55.74;94755.38;5076560;28;20249;-77
2024/03/24 10:48:35;;;;;;;5.43;2.00;;;;;;;8.35;56.79;94748.78;5062976;28;20232;-77
2024/03/24 10:51:02;;;;;;;2.10;1.80;;;;;;;7.74;58.40;94749.63;5073532;28;20530;-77
2024/03/24 10:53:29;;;;;;;5.60;2.40;;;;;;;7.54;60.78;94767.88;5066882;28;20176;-77
2024/03/24 10:56:00;;;;;;;5.37;2.00;;;;;;;7.42;61.96;94763.91;5087139;28;20176;-77
2024/03/24 10:58:26;;;;;;;7.40;2.80;;;;;;;7.29;62.30;94758.28;5066264;28;20667;-77
2024/03/24 11:00:52;;;;;;;3.80;2.33;;;;;;;7.38;62.54;94763.38;5051122;28;20267;-77
2024/03/24 11:03:19;;;;;;;6.80;2.00;;;;;;;6.90;65.15;94768.84;5082827;28;20189;-77
2024/03/24 11:05:46;;;;;;;4.40;2.10;;;;;;;6.49;67.43;94773.50;5076295;28;20207;-77
2024/03/24 11:08:15;;;;;;;2.80;1.80;;;;;;;6.30;69.60;94763.25;5056239;28;20212;-77
2024/03/24 11:10:42;;;;;;;2.77;2.17;;;;;;;6.17;69.56;94767.88;5061288;28;20647;-77
2024/03/24 11:13:08;;;;;;;3.73;2.23;;;;;;;6.17;70.90;94757.59;5069833;28;20258;-78
2024/03/24 11:15:34;;;;;;;3.37;1.87;;;;;;;6.40;70.92;94751.13;5066055;28;20192;-78
2024/03/24 11:18:03;;;;;;;2.43;1.70;;;;;;;6.37;70.11;94743.69;5065431;28;20242;-78
2024/03/24 11:20:28;;;;;;;4.53;2.10;;;;;;;6.63;70.06;94737.88;5068731;28;20215;-77
2024/03/24 11:22:54;;;;;;;4.40;2.20;;;;;;;6.45;71.17;94741.22;5058618;28;20275;-77
2024/03/24 11:25:19;;;;;;;5.13;2.20;;;;;;;6.89;68.87;94736.25;5065738;28;20185;-78
2024/03/24 11:27:45;;;;;;;5.67;2.23;;;;;;;6.79;68.34;94745.78;5063697;28;20212;-77
2024/03/24 11:30:11;;;;;;;4.70;2.23;;;;;;;6.75;68.73;94736.72;5067995;28;20184;-78
2024/03/24 11:32:54;;;;;;;3.57;2.10;;;;;;;7.39;67.55;94738.34;5052836;28;20192;-78
2024/03/24 11:35:29;;;;;;;3.27;1.70;;;;;;;7.04;67.20;94745.09;5087230;28;20189;-77